Time;durP1;ratioP1;P1;durP2;ratioP2;P2;SDS_P1;SDS_P2;PMS_P1;PMS_P2;Temp;Humidity;BMP_temperature;BMP_pressure;BME280_temperature;BME280_humidity;BME280_pressure;Samples;Min_cycle;Max_cycle;Signal;HPM_P1;HPM_P2
2021/11/30 00:01:13;;;;;;;7.87;6.50;;;4.10;99.90;;;;;;5059395;28;20449;-90
2021/11/30 00:03:41;;;;;;;8.23;7.20;;;4.10;99.90;;;;;;5046343;28;20484;-91
2021/11/30 00:06:09;;;;;;;6.97;6.27;;;4.00;99.90;;;;;;5069880;28;20432;-88
2021/11/30 00:08:37;;;;;;;8.30;7.50;;;4.00;99.90;;;;;;5048503;28;20495;-89
2021/11/30 00:11:07;;;;;;;9.33;7.10;;;4.00;99.90;;;;;;5046869;28;20429;-89
2021/11/30 00:13:36;;;;;;;7.23;6.53;;;4.10;99.90;;;;;;5046817;28;20506;-90
2021/11/30 00:16:04;;;;;;;8.03;5.93;;;4.10;99.90;;;;;;5066051;28;20431;-87
2021/11/30 00:18:33;;;;;;;7.50;6.20;;;4.10;99.90;;;;;;5069533;28;20461;-88
2021/11/30 00:21:03;;;;;;;8.63;7.10;;;4.10;99.90;;;;;;5051034;28;20470;-90
2021/11/30 00:23:30;;;;;;;8.10;7.40;;;4.10;99.90;;;;;;5051585;28;20475;-89
2021/11/30 00:25:57;;;;;;;6.40;5.40;;;4.10;99.90;;;;;;5068554;28;20424;-89
2021/11/30 00:28:24;;;;;;;7.10;6.40;;;4.10;99.90;;;;;;5046306;28;20998;-90
2021/11/30 00:30:50;;;;;;;6.60;5.90;;;4.10;99.90;;;;;;5044764;28;20448;-90
2021/11/30 00:33:17;;;;;;;8.03;6.40;;;4.00;99.90;;;;;;5049437;28;20424;-90
2021/11/30 00:35:44;;;;;;;5.40;4.63;;;4.10;99.90;;;;;;5061271;28;20440;-91
2021/11/30 00:38:14;;;;;;;6.97;5.70;;;4.00;99.90;;;;;;5046927;28;20480;-90
2021/11/30 00:40:41;;;;;;;5.87;5.37;;;3.90;99.90;;;;;;5045264;28;20479;-89
2021/11/30 00:43:08;;;;;;;5.20;4.70;;;4.10;99.90;;;;;;5045431;28;20451;-90
2021/11/30 00:45:46;;;;;;;5.73;5.23;;;4.00;99.90;;;;;;5044998;28;20810;-90
2021/11/30 00:48:19;;;;;;;7.20;6.50;;;4.10;99.90;;;;;;5045833;28;20859;-90
2021/11/30 00:50:47;;;;;;;4.97;4.57;;;4.10;99.90;;;;;;5065984;28;20464;-89
2021/11/30 00:53:15;;;;;;;5.33;4.23;;;4.00;99.90;;;;;;5065372;28;20452;-88
2021/11/30 00:55:42;;;;;;;5.83;5.23;;;3.90;99.90;;;;;;5067780;28;20429;-90
2021/11/30 00:58:09;;;;;;;5.27;4.77;;;3.90;99.90;;;;;;5048945;28;20477;-90
2021/11/30 01:00:36;;;;;;;5.70;4.83;;;3.80;99.90;;;;;;5047348;28;20434;-90
2021/11/30 01:03:04;;;;;;;5.87;4.80;;;3.80;99.90;;;;;;5058546;28;20441;-90
2021/11/30 01:05:32;;;;;;;4.87;4.47;;;3.80;99.90;;;;;;5042580;28;20441;-91
2021/11/30 01:07:59;;;;;;;5.20;4.80;;;3.80;99.90;;;;;;5044569;28;20463;-91
2021/11/30 01:10:27;;;;;;;6.30;5.00;;;3.80;99.90;;;;;;5046858;28;20487;-90
2021/11/30 01:12:54;;;;;;;4.83;4.43;;;3.80;99.90;;;;;;5047234;28;20448;-89
2021/11/30 01:15:22;;;;;;;6.13;5.30;;;3.80;99.90;;;;;;5059689;28;20440;-90
2021/11/30 01:17:50;;;;;;;5.80;5.20;;;3.80;99.90;;;;;;5061443;28;20457;-88
2021/11/30 01:20:18;;;;;;;6.23;5.37;;;3.70;99.90;;;;;;5071540;28;20428;-88
2021/11/30 01:22:45;;;;;;;5.97;4.73;;;3.80;99.90;;;;;;5054849;28;20439;-89
2021/11/30 01:25:12;;;;;;;7.30;4.60;;;3.80;99.90;;;;;;5047353;28;20922;-89
2021/11/30 01:27:41;;;;;;;5.20;4.70;;;3.80;99.90;;;;;;5047787;28;20449;-89
2021/11/30 01:30:09;;;;;;;6.00;5.40;;;3.90;99.90;;;;;;5054519;28;20487;-88
2021/11/30 01:32:37;;;;;;;8.53;5.17;;;3.80;99.90;;;;;;5045521;28;20457;-90
2021/11/30 01:35:04;;;;;;;5.20;4.70;;;3.90;99.90;;;;;;5043296;28;20950;-90
2021/11/30 01:37:31;;;;;;;5.77;5.10;;;3.90;99.90;;;;;;5042901;28;20967;-89
2021/11/30 01:39:58;;;;;;;6.50;5.10;;;3.90;99.90;;;;;;5053303;28;20456;-86
2021/11/30 01:42:25;;;;;;;4.83;4.37;;;4.00;99.90;;;;;;5062565;28;20818;-89
2021/11/30 01:44:57;;;;;;;5.00;4.60;;;4.00;99.90;;;;;;5044996;28;20448;-89
2021/11/30 01:47:36;;;;;;;6.00;4.77;;;4.00;99.90;;;;;;5056943;28;20436;-86
2021/11/30 01:50:46;;;;;;;5.93;4.23;;;4.00;99.90;;;;;;5045253;28;20476;-90
2021/11/30 01:53:13;;;;;;;6.67;4.47;;;4.00;99.90;;;;;;5035533;28;20946;-89
2021/11/30 01:55:43;;;;;;;4.50;4.07;;;4.10;99.90;;;;;;5043792;28;20445;-89
2021/11/30 01:58:10;;;;;;;4.83;4.40;;;4.10;99.90;;;;;;5044990;28;20471;-89
2021/11/30 02:00:38;;;;;;;4.27;3.87;;;4.10;99.90;;;;;;5046380;28;20832;-91
2021/11/30 02:03:06;;;;;;;7.27;4.33;;;4.10;99.90;;;;;;5046096;28;20450;-91
2021/11/30 02:05:34;;;;;;;5.83;3.87;;;4.10;99.90;;;;;;5044539;28;20456;-89
2021/11/30 02:08:01;;;;;;;5.63;4.53;;;4.10;99.90;;;;;;5049194;28;20449;-89
2021/11/30 02:10:29;;;;;;;9.33;4.43;;;4.10;99.90;;;;;;5056456;28;20820;-88
2021/11/30 02:12:56;;;;;;;7.33;4.17;;;4.10;99.90;;;;;;5044745;28;20482;-89
2021/11/30 02:15:26;;;;;;;6.80;3.80;;;4.10;99.90;;;;;;5043578;28;20456;-88
2021/11/30 02:17:54;;;;;;;5.27;3.90;;;4.10;99.90;;;;;;5055570;28;20467;-88
2021/11/30 02:20:23;;;;;;;5.20;3.40;;;4.10;99.90;;;;;;5054284;28;20442;-91
2021/11/30 02:22:53;;;;;;;4.10;3.70;;;4.00;99.90;;;;;;5048923;28;20464;-89
2021/11/30 02:25:21;;;;;;;4.40;3.63;;;4.10;99.90;;;;;;5052290;28;20452;-88
2021/11/30 02:27:49;;;;;;;4.70;3.87;;;4.10;99.90;;;;;;5044236;28;20473;-89
2021/11/30 02:30:15;;;;;;;8.10;3.50;;;4.10;99.90;;;;;;5045668;28;20475;-87
2021/11/30 02:32:43;;;;;;;3.83;3.43;;;4.10;99.90;;;;;;5068448;28;20440;-87
2021/11/30 02:35:10;;;;;;;4.20;3.77;;;4.10;99.90;;;;;;5054293;28;20445;-86
2021/11/30 02:37:43;;;;;;;6.43;3.87;;;4.10;99.90;;;;;;5055784;28;20446;-90
2021/11/30 02:40:11;;;;;;;4.37;3.97;;;4.20;99.90;;;;;;5048232;28;20436;-89
2021/11/30 02:42:38;;;;;;;4.87;3.30;;;4.20;99.90;;;;;;5044594;28;20461;-90
2021/11/30 02:45:05;;;;;;;4.87;3.63;;;4.10;99.90;;;;;;5046417;28;20449;-90
2021/11/30 02:47:32;;;;;;;3.40;3.10;;;4.10;99.90;;;;;;5041791;28;20789;-91
2021/11/30 02:49:59;;;;;;;6.40;3.37;;;4.10;99.90;;;;;;5060979;28;20463;-91
2021/11/30 02:52:27;;;;;;;4.80;2.87;;;4.10;99.90;;;;;;5070306;28;20444;-87
2021/11/30 02:54:55;;;;;;;3.97;2.33;;;4.00;99.90;;;;;;5054180;28;20506;-90
2021/11/30 02:57:23;;;;;;;5.83;2.80;;;4.00;99.90;;;;;;5060060;28;20459;-89
2021/11/30 02:59:53;;;;;;;7.33;2.70;;;4.00;99.90;;;;;;5060780;28;20490;-90
2021/11/30 03:02:22;;;;;;;3.47;3.17;;;4.00;99.90;;;;;;5063529;28;20503;-90
2021/11/30 03:04:51;;;;;;;4.13;2.73;;;4.00;99.90;;;;;;5047222;28;20443;-90
2021/11/30 03:07:21;;;;;;;4.87;2.53;;;4.00;99.90;;;;;;5054545;28;20443;-90
2021/11/30 03:09:48;;;;;;;3.63;2.30;;;4.00;99.90;;;;;;5077621;28;20474;-87
2021/11/30 03:12:16;;;;;;;4.50;2.80;;;3.90;99.90;;;;;;5066042;28;20428;-90
2021/11/30 03:14:43;;;;;;;5.67;3.20;;;3.90;99.90;;;;;;5062375;28;20449;-89
2021/11/30 03:17:10;;;;;;;3.27;2.80;;;3.80;99.90;;;;;;5054861;28;20474;-88
2021/11/30 03:19:37;;;;;;;3.40;2.40;;;3.70;99.90;;;;;;5044032;28;20457;-88
2021/11/30 03:22:05;;;;;;;3.10;2.73;;;3.70;99.90;;;;;;5055193;28;20439;-90
2021/11/30 03:24:32;;;;;;;3.70;2.50;;;3.70;99.90;;;;;;5046814;28;20442;-90
2021/11/30 03:26:59;;;;;;;3.77;2.50;;;3.60;99.90;;;;;;5053982;28;20427;-88
2021/11/30 03:29:27;;;;;;;3.57;2.07;;;3.70;99.90;;;;;;5069040;28;20479;-90
2021/11/30 03:32:03;;;;;;;3.37;2.80;;;3.60;99.90;;;;;;5065195;28;20511;-88
2021/11/30 03:34:29;;;;;;;2.57;2.10;;;3.60;99.90;;;;;;5055710;28;20452;-90
2021/11/30 03:36:56;;;;;;;4.23;2.37;;;3.70;99.90;;;;;;5049639;28;20450;-90
2021/11/30 03:39:27;;;;;;;2.60;2.33;;;3.60;99.90;;;;;;5049282;28;20459;-90
2021/11/30 03:41:55;;;;;;;3.20;2.70;;;3.70;99.90;;;;;;5047197;28;20501;-89
2021/11/30 03:44:23;;;;;;;4.20;2.50;;;3.70;99.90;;;;;;5047141;28;20446;-90
2021/11/30 03:46:52;;;;;;;3.10;2.10;;;3.70;99.90;;;;;;5051589;28;20839;-90
2021/11/30 03:49:19;;;;;;;2.33;2.13;;;3.80;99.90;;;;;;5046714;28;20481;-90
2021/11/30 03:51:47;;;;;;;3.70;2.33;;;3.80;99.90;;;;;;5044729;28;20443;-90
2021/11/30 03:54:14;;;;;;;2.80;1.83;;;3.80;99.90;;;;;;5046729;28;20934;-91
2021/11/30 03:56:42;;;;;;;4.67;2.80;;;3.80;99.90;;;;;;5048920;28;20457;-90
2021/11/30 03:59:10;;;;;;;3.47;2.03;;;3.80;99.90;;;;;;5044766;28;20491;-90
2021/11/30 04:01:37;;;;;;;5.27;2.20;;;3.90;99.90;;;;;;5046881;28;20551;-90
2021/11/30 04:04:20;;;;;;;4.17;2.70;;;3.90;99.90;;;;;;5045549;28;20436;-90
2021/11/30 04:06:47;;;;;;;3.20;1.90;;;3.90;99.90;;;;;;5046510;28;20837;-90
2021/11/30 04:09:15;;;;;;;3.20;2.10;;;3.90;99.90;;;;;;5046495;28;20476;-90
2021/11/30 04:11:42;;;;;;;3.33;2.20;;;3.80;99.90;;;;;;5045356;28;20440;-89
2021/11/30 04:14:09;;;;;;;3.63;2.27;;;3.80;99.90;;;;;;5062110;28;20414;-88
2021/11/30 04:16:36;;;;;;;4.57;2.30;;;3.90;99.90;;;;;;5075099;28;20474;-89
2021/11/30 04:19:03;;;;;;;8.50;2.53;;;3.90;99.90;;;;;;5070801;28;20467;-90
2021/11/30 04:21:31;;;;;;;3.90;2.57;;;3.90;99.90;;;;;;5058750;28;20819;-90
2021/11/30 04:23:58;;;;;;;3.93;2.60;;;3.90;99.90;;;;;;5046411;28;20465;-89
2021/11/30 04:26:24;;;;;;;3.10;2.50;;;3.80;99.90;;;;;;5050680;28;20458;-89
2021/11/30 04:28:51;;;;;;;2.80;2.40;;;3.80;99.90;;;;;;5046056;28;20462;-90
2021/11/30 04:31:18;;;;;;;2.53;2.00;;;3.80;99.90;;;;;;5047946;28;20474;-90
2021/11/30 04:33:45;;;;;;;5.57;2.50;;;3.80;99.90;;;;;;5051544;28;20523;-90
2021/11/30 04:36:12;;;;;;;4.90;3.27;;;3.70;99.90;;;;;;5063861;28;20460;-88
2021/11/30 04:38:40;;;;;;;4.83;2.63;;;3.70;99.90;;;;;;5046552;28;20448;-90
2021/11/30 04:41:09;;;;;;;2.33;2.03;;;3.70;99.90;;;;;;5049896;28;20469;-87
2021/11/30 04:43:36;;;;;;;3.03;2.73;;;3.60;99.90;;;;;;5069281;28;20442;-89
2021/11/30 04:46:09;;;;;;;4.73;2.83;;;3.60;99.90;;;;;;5063500;28;20441;-89
2021/11/30 04:48:36;;;;;;;4.70;2.90;;;3.60;99.90;;;;;;5059186;28;20512;-89
2021/11/30 04:51:04;;;;;;;8.40;2.80;;;3.60;99.90;;;;;;5064354;28;21003;-90
2021/11/30 04:53:32;;;;;;;4.07;3.10;;;3.60;99.90;;;;;;5053652;28;20466;-90
2021/11/30 04:56:01;;;;;;;3.90;2.30;;;3.60;99.90;;;;;;5047926;28;20445;-91
2021/11/30 04:58:28;;;;;;;5.10;2.80;;;3.50;99.90;;;;;;5054548;28;20479;-90
2021/11/30 05:00:56;;;;;;;3.67;3.30;;;3.50;99.90;;;;;;5071763;28;20442;-88
2021/11/30 05:03:23;;;;;;;3.03;2.50;;;3.50;99.90;;;;;;5046889;28;20437;-90
2021/11/30 05:05:50;;;;;;;4.03;2.73;;;3.50;99.90;;;;;;5057707;28;20430;-89
2021/11/30 05:08:16;;;;;;;4.97;2.90;;;3.50;99.90;;;;;;5068291;28;20452;-87
2021/11/30 05:10:43;;;;;;;2.30;2.10;;;3.50;99.90;;;;;;5048575;28;20477;-90
2021/11/30 05:13:11;;;;;;;4.07;2.60;;;3.60;99.90;;;;;;5048189;28;20464;-90
2021/11/30 05:15:38;;;;;;;5.73;2.60;;;3.50;99.90;;;;;;5046009;28;20427;-90
2021/11/30 05:18:05;;;;;;;3.63;2.50;;;3.60;99.90;;;;;;5046690;28;20467;-89
2021/11/30 05:20:32;;;;;;;9.83;3.00;;;3.60;99.90;;;;;;5048661;28;20441;-90
2021/11/30 05:22:59;;;;;;;2.30;2.10;;;3.50;99.90;;;;;;5061214;28;20515;-90
2021/11/30 05:25:33;;;;;;;3.00;2.70;;;3.60;99.90;;;;;;5048145;28;20452;-90
2021/11/30 05:28:00;;;;;;;3.60;3.03;;;3.60;99.90;;;;;;5049000;28;20473;-90
2021/11/30 05:30:35;;;;;;;2.87;2.60;;;3.50;99.90;;;;;;5056038;28;20473;-90
2021/11/30 05:33:04;;;;;;;3.30;2.90;;;3.50;99.90;;;;;;5043976;28;20441;-89
2021/11/30 05:35:30;;;;;;;3.93;3.00;;;3.50;99.90;;;;;;5047104;28;20447;-89
2021/11/30 05:37:57;;;;;;;2.53;2.33;;;3.40;99.90;;;;;;5049984;28;20470;-90
2021/11/30 05:40:24;;;;;;;4.40;3.13;;;3.40;99.90;;;;;;5048001;28;20444;-90
2021/11/30 05:42:51;;;;;;;5.00;3.33;;;3.30;99.90;;;;;;5050100;28;20545;-90
2021/11/30 05:45:18;;;;;;;3.87;3.57;;;3.30;99.90;;;;;;5046686;28;20456;-89
2021/11/30 05:47:46;;;;;;;5.47;3.35;;;3.30;99.90;;;;;;5046374;28;20438;-89
2021/11/30 05:50:13;;;;;;;4.35;3.92;;;3.20;99.90;;;;;;5044839;28;20217;-89
2021/11/30 05:52:39;;;;;;;5.83;3.27;;;3.20;99.90;;;;;;5045396;28;20211;-88
2021/11/30 05:55:07;;;;;;;4.45;3.60;;;3.20;99.90;;;;;;5045073;28;20451;-88
2021/11/30 05:57:34;;;;;;;6.30;3.33;;;3.20;99.90;;;;;;5055417;28;20183;-86
2021/11/30 06:00:02;;;;;;;3.80;3.43;;;3.20;99.90;;;;;;5065636;28;20455;-87
2021/11/30 06:02:31;;;;;;;7.73;3.47;;;3.20;99.90;;;;;;5066914;28;20418;-90
2021/11/30 06:04:59;;;;;;;4.83;3.87;;;3.10;99.90;;;;;;5060272;28;20452;-89
2021/11/30 06:07:26;;;;;;;4.03;3.60;;;3.20;99.90;;;;;;5049130;28;20470;-89
2021/11/30 06:09:52;;;;;;;7.20;4.17;;;3.20;99.90;;;;;;5046320;28;20230;-89
2021/11/30 06:12:19;;;;;;;6.30;3.60;;;3.10;99.90;;;;;;5046208;28;20448;-89
2021/11/30 06:14:46;;;;;;;4.57;3.40;;;3.10;99.90;;;;;;5047050;28;20439;-88
2021/11/30 06:17:14;;;;;;;8.33;3.10;;;3.10;99.90;;;;;;5044154;28;20439;-89
2021/11/30 06:19:41;;;;;;;6.82;4.25;;;3.10;99.90;;;;;;5043426;28;20471;-89
2021/11/30 06:22:11;;;;;;;4.73;4.10;;;3.20;99.90;;;;;;5043292;28;20191;-90
2021/11/30 06:24:38;;;;;;;5.20;4.00;;;3.20;99.90;;;;;;5044577;28;20508;-89
2021/11/30 06:27:05;;;;;;;5.00;3.50;;;3.20;99.90;;;;;;5060791;28;20421;-88
2021/11/30 06:29:31;;;;;;;4.88;4.28;;;3.10;99.90;;;;;;5053639;28;20461;-87
2021/11/30 06:31:58;;;;;;;6.73;4.63;;;3.00;99.90;;;;;;5060544;28;20221;-89
2021/11/30 06:34:25;;;;;;;9.20;4.97;;;2.90;99.90;;;;;;5043638;28;20834;-90
2021/11/30 06:36:52;;;;;;;5.30;3.87;;;2.90;99.90;;;;;;5043905;28;20433;-89
2021/11/30 06:39:21;;;;;;;6.57;3.78;;;2.80;99.90;;;;;;5047267;28;20995;-89
2021/11/30 06:41:48;;;;;;;5.38;4.90;;;2.80;99.90;;;;;;5043066;28;20194;-89
2021/11/30 06:44:14;;;;;;;5.10;4.57;;;2.80;99.90;;;;;;5049675;28;20200;-89
2021/11/30 06:46:41;;;;;;;5.55;4.95;;;2.70;99.90;;;;;;5058655;28;20723;-87
2021/11/30 06:49:14;;;;;;;4.95;4.45;;;2.70;99.90;;;;;;5063359;28;20200;-86
2021/11/30 06:51:41;;;;;;;6.33;4.87;;;2.60;99.90;;;;;;5064942;28;20230;-88
2021/11/30 06:54:08;;;;;;;4.93;4.20;;;2.70;99.90;;;;;;5065932;28;20455;-88
2021/11/30 06:56:36;;;;;;;5.00;4.25;;;2.60;99.90;;;;;;5063905;28;20195;-89
2021/11/30 06:59:03;;;;;;;6.00;4.70;;;2.50;99.90;;;;;;5046677;28;20221;-90
2021/11/30 07:01:32;;;;;;;6.07;5.05;;;2.50;99.90;;;;;;5044341;28;20196;-89
2021/11/30 07:04:01;;;;;;;7.28;5.22;;;2.50;99.90;;;;;;5052498;28;20205;-88
2021/11/30 07:06:35;;;;;;;7.32;5.22;;;2.50;99.90;;;;;;5044370;28;20221;-89
2021/11/30 07:09:15;;;;;;;8.48;5.20;;;2.50;99.90;;;;;;5044448;28;20308;-88
2021/11/30 07:12:03;;;;;;;5.50;4.68;;;2.50;99.90;;;;;;5047598;28;20224;-89
2021/11/30 07:14:31;;;;;;;6.68;3.92;;;2.50;99.90;;;;;;5043994;28;20206;-89
2021/11/30 07:16:58;;;;;;;5.37;3.43;;;2.60;99.90;;;;;;5043382;28;20251;-89
2021/11/30 07:19:25;;;;;;;7.32;3.65;;;2.60;99.90;;;;;;5046100;28;20468;-90
2021/11/30 07:21:52;;;;;;;4.93;3.67;;;2.60;99.90;;;;;;5043372;28;20194;-89
2021/11/30 07:24:19;;;;;;;6.30;4.75;;;2.60;99.90;;;;;;5057152;28;20441;-87
2021/11/30 07:26:47;;;;;;;4.57;3.60;;;2.70;99.90;;;;;;5057248;28;20199;-89
2021/11/30 07:29:14;;;;;;;8.02;4.45;;;2.70;99.90;;;;;;5052232;28;20216;-89
2021/11/30 07:31:42;;;;;;;3.37;3.07;;;2.70;99.90;;;;;;5049117;28;20215;-89
2021/11/30 07:34:10;;;;;;;2.72;2.50;;;2.70;99.90;;;;;;5043276;28;20459;-89
2021/11/30 07:36:37;;;;;;;6.35;3.83;;;2.80;99.90;;;;;;5049126;28;20197;-87
2021/11/30 07:39:05;;;;;;;4.85;3.30;;;2.80;99.90;;;;;;5042462;28;20221;-88
2021/11/30 07:41:35;;;;;;;4.13;3.47;;;2.70;99.90;;;;;;5041055;28;20254;-89
2021/11/30 07:44:03;;;;;;;3.77;2.53;;;2.70;99.90;;;;;;5061154;28;20204;-87
2021/11/30 07:46:30;;;;;;;4.53;3.47;;;2.80;99.90;;;;;;5058204;28;20430;-88
2021/11/30 07:49:46;;;;;;;3.80;3.23;;;2.80;99.90;;;;;;5062181;28;20512;-83
2021/11/30 07:52:13;;;;;;;2.83;2.33;;;2.80;99.90;;;;;;5039402;28;20486;-88
2021/11/30 07:54:44;;;;;;;4.13;3.28;;;2.90;99.90;;;;;;5044179;28;20453;-88
2021/11/30 07:57:11;;;;;;;2.45;2.10;;;2.80;99.90;;;;;;5044038;28;20234;-88
2021/11/30 07:59:40;;;;;;;3.08;2.60;;;2.90;99.90;;;;;;5044033;28;20211;-88
2021/11/30 08:02:07;;;;;;;4.85;2.88;;;2.90;99.90;;;;;;5044040;28;20217;-87
2021/11/30 08:04:34;;;;;;;3.25;2.75;;;2.90;99.90;;;;;;5055744;28;20268;-86
2021/11/30 08:07:01;;;;;;;2.80;2.50;;;3.00;99.90;;;;;;5063397;28;20201;-85
2021/11/30 08:09:32;;;;;;;2.90;2.60;;;3.00;99.90;;;;;;5060103;28;20826;-86
2021/11/30 08:11:59;;;;;;;4.10;3.10;;;3.00;99.90;;;;;;5058764;28;20220;-87
2021/11/30 08:14:26;;;;;;;3.00;2.53;;;3.00;99.90;;;;;;5064924;28;20469;-85
2021/11/30 08:16:54;;;;;;;3.40;2.77;;;3.00;99.90;;;;;;5063139;28;20454;-87
2021/11/30 08:19:23;;;;;;;4.88;2.60;;;3.00;99.90;;;;;;5052381;28;20483;-90
2021/11/30 08:21:50;;;;;;;2.97;2.77;;;3.00;99.90;;;;;;5047564;28;20259;-88
2021/11/30 08:24:17;;;;;;;4.97;3.25;;;2.90;99.90;;;;;;5045393;28;20444;-87
2021/11/30 08:26:44;;;;;;;2.92;2.35;;;2.90;99.90;;;;;;5046903;28;20660;-86
2021/11/30 08:29:11;;;;;;;3.42;2.40;;;3.00;99.90;;;;;;5062131;28;20794;-88
2021/11/30 08:31:38;;;;;;;3.28;2.70;;;3.00;99.90;;;;;;5046742;28;20217;-88
2021/11/30 08:34:06;;;;;;;4.83;3.60;;;3.00;99.90;;;;;;5058828;28;20199;-85
2021/11/30 08:36:33;;;;;;;3.30;2.97;;;3.00;99.90;;;;;;5055134;28;20453;-88
2021/11/30 08:39:00;;;;;;;2.97;2.45;;;3.10;99.90;;;;;;5051539;28;20527;-87
2021/11/30 08:41:26;;;;;;;3.53;2.50;;;3.10;99.90;;;;;;5061980;28;20203;-88
2021/11/30 08:43:53;;;;;;;2.95;2.72;;;3.10;99.90;;;;;;5054103;28;20456;-89
2021/11/30 08:46:20;;;;;;;12.50;6.17;;;3.10;99.90;;;;;;5044272;28;20205;-89
2021/11/30 08:48:46;;;;;;;19.70;11.15;;;3.00;99.90;;;;;;5062409;28;20529;-87
2021/11/30 08:51:15;;;;;;;7.27;4.07;;;3.00;99.90;;;;;;5054748;28;20390;-89
2021/11/30 08:53:41;;;;;;;5.57;3.70;;;3.00;99.90;;;;;;5058480;28;20450;-87
2021/11/30 08:56:09;;;;;;;3.00;2.45;;;3.10;99.90;;;;;;5061782;28;20195;-86
2021/11/30 08:58:35;;;;;;;4.40;2.93;;;3.10;99.90;;;;;;5053635;28;20211;-89
2021/11/30 09:01:06;;;;;;;3.22;2.53;;;3.00;99.90;;;;;;5052130;28;20449;-89
2021/11/30 09:03:33;;;;;;;3.60;2.57;;;3.00;99.90;;;;;;5043743;28;20196;-89
2021/11/30 09:06:00;;;;;;;6.15;2.92;;;3.00;99.90;;;;;;5044583;28;21106;-89
2021/11/30 09:08:28;;;;;;;5.60;2.87;;;3.00;99.90;;;;;;5046905;28;20218;-88
2021/11/30 09:10:55;;;;;;;2.80;2.17;;;3.10;99.90;;;;;;5045841;28;20822;-89
2021/11/30 09:13:22;;;;;;;1.97;1.80;;;3.10;99.90;;;;;;5046694;28;20481;-89
2021/11/30 09:15:49;;;;;;;2.70;2.00;;;3.20;99.90;;;;;;5045436;28;20446;-89
2021/11/30 09:18:15;;;;;;;4.10;2.60;;;3.20;99.90;;;;;;5044778;28;21112;-87
2021/11/30 09:20:42;;;;;;;4.85;2.78;;;3.20;99.90;;;;;;5044146;28;20953;-88
2021/11/30 09:23:10;;;;;;;3.10;2.23;;;3.20;99.90;;;;;;5061583;28;20190;-86
2021/11/30 09:25:39;;;;;;;3.78;2.45;;;3.30;99.90;;;;;;5060224;28;20418;-85
2021/11/30 09:28:06;;;;;;;1.80;1.67;;;3.30;99.90;;;;;;5064082;28;20202;-86
2021/11/30 09:30:35;;;;;;;2.20;1.88;;;3.30;99.90;;;;;;5065564;28;20515;-87
2021/11/30 09:33:02;;;;;;;3.00;2.47;;;3.30;99.90;;;;;;5049751;28;20221;-88
2021/11/30 09:35:28;;;;;;;3.13;2.37;;;3.40;99.90;;;;;;5043170;28;20490;-87
2021/11/30 09:37:56;;;;;;;3.17;2.87;;;3.40;99.90;;;;;;5045488;28;20470;-88
2021/11/30 09:40:25;;;;;;;5.00;1.97;;;3.50;99.90;;;;;;5043094;28;20452;-89
2021/11/30 09:42:53;;;;;;;3.60;1.70;;;3.50;99.90;;;;;;5044032;28;20452;-88
2021/11/30 09:45:21;;;;;;;2.50;1.93;;;3.50;99.90;;;;;;5044126;28;20458;-88
2021/11/30 09:47:48;;;;;;;2.50;2.20;;;3.60;99.90;;;;;;5042316;28;20463;-88
2021/11/30 09:50:17;;;;;;;2.28;2.08;;;3.60;99.90;;;;;;5045053;28;20438;-87
2021/11/30 09:52:46;;;;;;;2.57;2.37;;;3.60;99.90;;;;;;5058462;28;20221;-89
2021/11/30 09:55:14;;;;;;;1.60;1.50;;;3.60;99.90;;;;;;5045917;28;21007;-88
2021/11/30 09:57:41;;;;;;;4.00;1.93;;;3.70;99.90;;;;;;5046308;28;20476;-87
2021/11/30 10:00:13;;;;;;;2.03;1.50;;;3.60;99.90;;;;;;5047796;28;20455;-88
2021/11/30 10:02:40;;;;;;;1.67;1.57;;;3.70;99.90;;;;;;5055532;28;20816;-89
2021/11/30 10:05:08;;;;;;;2.40;1.63;;;3.70;99.90;;;;;;5046123;28;20444;-88
2021/11/30 10:07:40;;;;;;;2.50;1.67;;;3.80;99.90;;;;;;5041519;28;20455;-86
2021/11/30 10:10:17;;;;;;;4.63;1.50;;;3.80;99.90;;;;;;5052767;28;20425;-89
2021/11/30 10:12:45;;;;;;;2.40;2.20;;;3.80;99.90;;;;;;5044260;28;20486;-88
2021/11/30 10:15:14;;;;;;;2.40;2.20;;;3.80;99.90;;;;;;5054377;28;20429;-86
2021/11/30 10:17:41;;;;;;;2.50;2.13;;;3.80;99.90;;;;;;5065064;28;20451;-87
2021/11/30 10:20:11;;;;;;;1.87;1.40;;;3.80;99.90;;;;;;5050326;28;20534;-88
2021/11/30 10:22:45;;;;;;;5.40;3.33;;;3.80;99.90;;;;;;5042354;28;20567;-87
2021/11/30 10:25:16;;;;;;;1.97;1.47;;;3.80;99.90;;;;;;5041634;28;20465;-87
2021/11/30 10:27:44;;;;;;;2.70;1.50;;;3.80;99.90;;;;;;5045355;28;20432;-88
2021/11/30 10:30:15;;;;;;;1.30;1.20;;;3.80;99.90;;;;;;5051511;28;20423;-85
2021/11/30 10:32:45;;;;;;;2.03;1.47;;;3.80;99.90;;;;;;5057487;28;20517;-88
2021/11/30 10:35:13;;;;;;;1.83;1.30;;;3.70;99.90;;;;;;5043604;28;20479;-87
2021/11/30 10:37:44;;;;;;;1.67;1.57;;;3.70;99.90;;;;;;5042815;28;20438;-87
2021/11/30 10:40:14;;;;;;;1.77;1.40;;;3.70;99.90;;;;;;5043568;28;20861;-88
2021/11/30 10:42:49;;;;;;;2.53;1.80;;;3.80;99.90;;;;;;5044272;28;20451;-88
2021/11/30 10:45:32;;;;;;;2.23;1.47;;;3.80;99.90;;;;;;5045160;28;20435;-88
2021/11/30 10:48:05;;;;;;;1.30;1.20;;;3.90;99.90;;;;;;5041327;28;20467;-87
2021/11/30 10:50:36;;;;;;;1.40;1.13;;;3.90;99.90;;;;;;5052679;28;20427;-89
2021/11/30 10:53:14;;;;;;;1.50;1.40;;;3.90;99.90;;;;;;5063060;28;20531;-86
2021/11/30 10:55:46;;;;;;;1.30;1.20;;;3.90;99.90;;;;;;5053350;28;20206;-84
2021/11/30 10:58:12;;;;;;;2.17;1.53;;;3.90;99.90;;;;;;5040902;28;20608;-86
2021/11/30 11:00:42;;;;;;;1.60;1.43;;;3.90;99.90;;;;;;5057522;28;20414;-83
2021/11/30 11:03:13;;;;;;;1.47;0.90;;;3.90;99.90;;;;;;5052234;28;20537;-85
2021/11/30 11:05:43;;;;;;;2.80;1.57;;;3.90;99.90;;;;;;5042980;28;20442;-86
2021/11/30 11:08:12;;;;;;;2.13;1.20;;;3.80;99.90;;;;;;5049627;28;20471;-88
2021/11/30 11:10:41;;;;;;;1.23;1.03;;;3.80;99.90;;;;;;5052790;28;20447;-87
2021/11/30 11:13:28;;;;;;;1.70;1.00;;;3.80;99.90;;;;;;5049659;28;20478;-86
2021/11/30 11:15:58;;;;;;;1.87;1.33;;;3.80;99.90;;;;;;5042649;28;20445;-87
2021/11/30 11:18:28;;;;;;;2.07;1.40;;;3.80;99.90;;;;;;5033603;28;20475;-86
2021/11/30 11:21:12;;;;;;;4.43;1.63;;;3.90;99.90;;;;;;5036020;28;20496;-88
2021/11/30 11:23:42;;;;;;;2.10;1.67;;;3.90;99.90;;;;;;5035161;28;20473;-87
2021/11/30 11:26:18;;;;;;;2.00;0.90;;;3.90;99.90;;;;;;5036406;28;20526;-87
2021/11/30 11:28:45;;;;;;;1.37;1.17;;;3.90;99.90;;;;;;5033049;28;20984;-88
2021/11/30 11:31:13;;;;;;;1.47;1.20;;;3.90;99.90;;;;;;5057667;28;20768;-87
2021/11/30 11:33:40;;;;;;;2.80;1.00;;;3.90;99.90;;;;;;5046685;28;20480;-89
2021/11/30 11:36:07;;;;;;;3.20;1.93;;;4.00;99.90;;;;;;5034781;28;20457;-87
2021/11/30 11:38:34;;;;;;;1.20;1.00;;;3.90;99.90;;;;;;5041751;28;20883;-87
2021/11/30 11:41:02;;;;;;;1.43;0.80;;;4.00;99.90;;;;;;5060656;22;20456;-86
2021/11/30 11:43:29;;;;;;;1.67;1.00;;;4.00;99.90;;;;;;5072552;28;20976;-85
2021/11/30 11:45:56;;;;;;;1.27;1.07;;;4.00;99.90;;;;;;5085696;28;20442;-86
2021/11/30 11:48:29;;;;;;;1.90;0.97;;;4.00;99.90;;;;;;5074652;28;20448;-84
2021/11/30 11:50:57;;;;;;;4.83;1.40;;;4.10;99.90;;;;;;5077360;28;20442;-85
2021/11/30 11:53:26;;;;;;;2.73;1.17;;;4.10;99.90;;;;;;5060053;28;20475;-86
2021/11/30 11:56:11;;;;;;;2.10;1.20;;;4.10;99.90;;;;;;5057125;28;20462;-85
2021/11/30 11:58:39;;;;;;;1.63;1.20;;;4.20;99.90;;;;;;5054754;28;20446;-85
2021/11/30 12:01:07;;;;;;;3.53;2.33;;;4.20;99.90;;;;;;5056831;28;20807;-85
2021/11/30 12:03:53;;;;;;;2.60;1.40;;;4.20;99.90;;;;;;5059276;28;20470;-85
2021/11/30 12:06:22;;;;;;;4.13;1.40;;;4.30;99.90;;;;;;5056078;28;20450;-86
2021/11/30 12:09:09;;;;;;;1.17;1.03;;;4.30;99.90;;;;;;5055375;28;20435;-85
2021/11/30 12:11:36;;;;;;;2.33;1.10;;;4.30;99.90;;;;;;5058248;28;20482;-85
2021/11/30 12:14:10;;;;;;;1.43;0.97;;;4.30;99.90;;;;;;5068781;28;20447;-85
2021/11/30 12:17:10;;;;;;;2.17;1.13;;;4.30;99.90;;;;;;5061864;28;20519;-85
2021/11/30 12:19:41;;;;;;;2.27;1.10;;;4.30;99.90;;;;;;5052965;28;20827;-85
2021/11/30 12:22:09;;;;;;;2.60;1.43;;;4.40;99.90;;;;;;5056920;28;20467;-85
2021/11/30 12:24:39;;;;;;;2.80;1.20;;;4.40;99.90;;;;;;5084137;28;20438;-86
2021/11/30 12:27:39;;;;;;;2.00;1.53;;;4.40;99.90;;;;;;5073102;28;20440;-85
2021/11/30 12:30:07;;;;;;;3.27;2.30;;;4.40;99.90;;;;;;5067693;28;20447;-85
2021/11/30 12:32:37;;;;;;;0.70;0.70;;;4.40;99.90;;;;;;5062054;28;20488;-85
2021/11/30 12:35:09;;;;;;;1.97;1.17;;;4.40;99.90;;;;;;5056254;28;20444;-85
2021/11/30 12:37:36;;;;;;;1.27;1.10;;;4.40;99.90;;;;;;5062191;28;20431;-86
2021/11/30 12:40:06;;;;;;;3.60;1.30;;;4.40;99.90;;;;;;5078388;28;20431;-87
2021/11/30 12:42:52;;;;;;;1.43;0.70;;;4.40;99.90;;;;;;5071594;28;20468;-85
2021/11/30 12:45:22;;;;;;;2.13;1.10;;;4.40;99.90;;;;;;5067963;28;20444;-85
2021/11/30 12:47:49;;;;;;;2.10;1.63;;;4.40;99.90;;;;;;5063843;28;20591;-86
2021/11/30 12:50:23;;;;;;;1.90;1.30;;;4.40;99.90;;;;;;5061101;28;20819;-85
2021/11/30 12:52:54;;;;;;;4.00;1.80;;;4.40;99.90;;;;;;5061569;28;20490;-85
2021/11/30 12:55:21;;;;;;;1.90;1.47;;;4.40;99.90;;;;;;5061229;28;20459;-85
2021/11/30 12:57:48;;;;;;;2.20;1.70;;;4.40;99.90;;;;;;5059371;28;20443;-86
2021/11/30 13:00:22;;;;;;;1.47;1.00;;;4.50;99.90;;;;;;5057096;28;20472;-86
2021/11/30 13:02:51;;;;;;;2.90;1.83;;;4.50;99.90;;;;;;5052127;28;20476;-85
2021/11/30 13:05:28;;;;;;;2.60;0.80;;;4.60;99.90;;;;;;5060297;28;20450;-86
2021/11/30 13:08:08;;;;;;;1.73;0.90;;;4.60;99.90;;;;;;5055967;28;20446;-85